sensor_id;sensor_type;location;lat;lon;timestamp;temperature;humidity
4596;DHT22;2310;49.978;8.742;2022-12-04T00:01:07;4.00;99.90
4596;DHT22;2310;49.978;8.742;2022-12-04T00:05:07;4.30;99.90
4596;DHT22;2310;49.978;8.742;2022-12-04T00:09:08;4.40;99.90
4596;DHT22;2310;49.978;8.742;2022-12-04T00:13:09;4.50;99.90
4596;DHT22;2310;49.978;8.742;2022-12-04T00:17:11;4.30;99.90
4596;DHT22;2310;49.978;8.742;2022-12-04T00:21:13;4.20;99.90
4596;DHT22;2310;49.978;8.742;2022-12-04T00:25:14;4.30;99.90
4596;DHT22;2310;49.978;8.742;2022-12-04T00:29:16;4.10;99.90
4596;DHT22;2310;49.978;8.742;2022-12-04T00:33:17;4.20;99.90
4596;DHT22;2310;49.978;8.742;2022-12-04T00:37:18;4.20;99.90
4596;DHT22;2310;49.978;8.742;2022-12-04T00:41:22;4.20;99.90
4596;DHT22;2310;49.978;8.742;2022-12-04T00:45:24;4.20;99.90
4596;DHT22;2310;49.978;8.742;2022-12-04T00:49:25;4.20;99.90
4596;DHT22;2310;49.978;8.742;2022-12-04T00:53:27;4.40;99.90
4596;DHT22;2310;49.978;8.742;2022-12-04T00:57:28;4.40;99.90
4596;DHT22;2310;49.978;8.742;2022-12-04T01:01:29;4.60;99.90
4596;DHT22;2310;49.978;8.742;2022-12-04T01:05:31;4.40;99.90
4596;DHT22;2310;49.978;8.742;2022-12-04T01:09:32;4.30;99.90
4596;DHT22;2310;49.978;8.742;2022-12-04T01:13:34;4.30;99.90
4596;DHT22;2310;49.978;8.742;2022-12-04T01:17:35;4.20;99.90
4596;DHT22;2310;49.978;8.742;2022-12-04T01:21:37;4.40;99.90
4596;DHT22;2310;49.978;8.742;2022-12-04T01:25:38;4.50;99.90
4596;DHT22;2310;49.978;8.742;2022-12-04T01:29:39;4.40;99.90
4596;DHT22;2310;49.978;8.742;2022-12-04T01:33:42;4.60;99.90
4596;DHT22;2310;49.978;8.742;2022-12-04T01:37:43;4.40;99.90
4596;DHT22;2310;49.978;8.742;2022-12-04T01:41:44;4.30;99.90
4596;DHT22;2310;49.978;8.742;2022-12-04T01:45:51;4.50;99.90
4596;DHT22;2310;49.978;8.742;2022-12-04T01:49:50;4.60;99.90
4596;DHT22;2310;49.978;8.742;2022-12-04T01:54:00;4.60;99.90
4596;DHT22;2310;49.978;8.742;2022-12-04T01:58:04;4.50;99.90
4596;DHT22;2310;49.978;8.742;2022-12-04T02:02:15;4.50;99.90
4596;DHT22;2310;49.978;8.742;2022-12-04T02:06:17;4.20;99.90
4596;DHT22;2310;49.978;8.742;2022-12-04T02:10:19;4.30;99.90
4596;DHT22;2310;49.978;8.742;2022-12-04T02:14:29;4.50;99.90
4596;DHT22;2310;49.978;8.742;2022-12-04T02:31:48;4.40;99.90
4596;DHT22;2310;49.978;8.742;2022-12-04T02:35:54;4.30;99.90
4596;DHT22;2310;49.978;8.742;2022-12-04T02:40:01;4.20;99.90
4596;DHT22;2310;49.978;8.742;2022-12-04T02:44:11;4.30;99.90
4596;DHT22;2310;49.978;8.742;2022-12-04T02:48:10;4.40;99.90
4596;DHT22;2310;49.978;8.742;2022-12-04T02:52:17;4.40;99.90
4596;DHT22;2310;49.978;8.742;2022-12-04T02:56:29;4.50;99.90
4596;DHT22;2310;49.978;8.742;2022-12-04T03:00:34;4.80;99.90
4596;DHT22;2310;49.978;8.742;2022-12-04T03:04:38;4.80;99.90
4596;DHT22;2310;49.978;8.742;2022-12-04T03:08:42;4.80;99.90
4596;DHT22;2310;49.978;8.742;2022-12-04T03:12:51;4.80;99.90
4596;DHT22;2310;49.978;8.742;2022-12-04T03:16:55;4.40;99.90
4596;DHT22;2310;49.978;8.742;2022-12-04T03:21:03;4.30;99.90
4596;DHT22;2310;49.978;8.742;2022-12-04T03:25:06;4.50;99.90
4596;DHT22;2310;49.978;8.742;2022-12-04T03:29:20;4.40;99.90
4596;DHT22;2310;49.978;8.742;2022-12-04T03:33:28;4.40;99.90
4596;DHT22;2310;49.978;8.742;2022-12-04T03:37:47;4.50;99.90
4596;DHT22;2310;49.978;8.742;2022-12-04T03:42:10;4.60;99.90
4596;DHT22;2310;49.978;8.742;2022-12-04T03:46:13;4.60;99.90
4596;DHT22;2310;49.978;8.742;2022-12-04T03:50:28;4.60;99.90
4596;DHT22;2310;49.978;8.742;2022-12-04T03:54:32;4.50;99.90
4596;DHT22;2310;49.978;8.742;2022-12-04T03:58:36;4.60;99.90
4596;DHT22;2310;49.978;8.742;2022-12-04T04:02:45;4.50;99.90
4596;DHT22;2310;49.978;8.742;2022-12-04T04:06:52;4.30;99.90
4596;DHT22;2310;49.978;8.742;2022-12-04T04:11:12;4.20;99.90
4596;DHT22;2310;49.978;8.742;2022-12-04T04:15:16;4.30;99.90
4596;DHT22;2310;49.978;8.742;2022-12-04T04:19:37;4.20;99.90
4596;DHT22;2310;49.978;8.742;2022-12-04T04:23:45;4.20;99.90
4596;DHT22;2310;49.978;8.742;2022-12-04T04:28:05;4.20;99.90
4596;DHT22;2310;49.978;8.742;2022-12-04T04:32:28;4.30;99.90
4596;DHT22;2310;49.978;8.742;2022-12-04T04:36:37;4.40;99.90
4596;DHT22;2310;49.978;8.742;2022-12-04T04:41:04;4.30;99.90
4596;DHT22;2310;49.978;8.742;2022-12-04T04:45:11;4.40;99.90
4596;DHT22;2310;49.978;8.742;2022-12-04T04:49:11;4.40;99.90
4596;DHT22;2310;49.978;8.742;2022-12-04T04:53:17;4.50;99.90
4596;DHT22;2310;49.978;8.742;2022-12-04T04:57:27;4.60;99.90
4596;DHT22;2310;49.978;8.742;2022-12-04T05:01:29;4.70;99.90
4596;DHT22;2310;49.978;8.742;2022-12-04T05:05:30;4.50;99.90
4596;DHT22;2310;49.978;8.742;2022-12-04T05:09:31;4.70;99.90
4596;DHT22;2310;49.978;8.742;2022-12-04T05:13:35;4.60;99.90
4596;DHT22;2310;49.978;8.742;2022-12-04T05:17:36;4.60;99.90
4596;DHT22;2310;49.978;8.742;2022-12-04T05:21:37;4.40;99.90
4596;DHT22;2310;49.978;8.742;2022-12-04T05:25:38;4.50;99.90
4596;DHT22;2310;49.978;8.742;2022-12-04T05:29:40;4.50;99.90
4596;DHT22;2310;49.978;8.742;2022-12-04T05:33:41;4.40;99.90
4596;DHT22;2310;49.978;8.742;2022-12-04T05:37:42;4.60;99.90
4596;DHT22;2310;49.978;8.742;2022-12-04T05:41:43;4.50;99.90
4596;DHT22;2310;49.978;8.742;2022-12-04T05:45:44;4.50;99.90
4596;DHT22;2310;49.978;8.742;2022-12-04T05:51:08;4.60;99.90
4596;DHT22;2310;49.978;8.742;2022-12-04T05:55:10;4.70;99.90
4596;DHT22;2310;49.978;8.742;2022-12-04T05:59:11;4.60;99.90
4596;DHT22;2310;49.978;8.742;2022-12-04T06:03:13;4.60;99.90
4596;DHT22;2310;49.978;8.742;2022-12-04T06:07:14;4.60;99.90
4596;DHT22;2310;49.978;8.742;2022-12-04T06:11:24;4.40;99.90
4596;DHT22;2310;49.978;8.742;2022-12-04T06:15:26;4.50;99.90
4596;DHT22;2310;49.978;8.742;2022-12-04T06:19:27;4.40;99.90
4596;DHT22;2310;49.978;8.742;2022-12-04T06:23:28;4.50;99.90
4596;DHT22;2310;49.978;8.742;2022-12-04T06:27:29;4.60;99.90
4596;DHT22;2310;49.978;8.742;2022-12-04T06:31:31;4.50;99.90
4596;DHT22;2310;49.978;8.742;2022-12-04T06:35:33;4.40;99.90
4596;DHT22;2310;49.978;8.742;2022-12-04T06:39:34;4.30;99.90
4596;DHT22;2310;49.978;8.742;2022-12-04T06:43:36;4.10;99.90
4596;DHT22;2310;49.978;8.742;2022-12-04T06:47:38;4.00;99.90
4596;DHT22;2310;49.978;8.742;2022-12-04T06:51:39;3.90;99.90
4596;DHT22;2310;49.978;8.742;2022-12-04T06:55:46;3.80;99.90
4596;DHT22;2310;49.978;8.742;2022-12-04T06:59:45;3.80;99.90
4596;DHT22;2310;49.978;8.742;2022-12-04T07:03:47;3.80;99.90
4596;DHT22;2310;49.978;8.742;2022-12-04T07:07:50;3.70;99.90
4596;DHT22;2310;49.978;8.742;2022-12-04T07:11:51;3.70;99.90
4596;DHT22;2310;49.978;8.742;2022-12-04T07:15:54;3.80;99.90
4596;DHT22;2310;49.978;8.742;2022-12-04T07:19:55;3.90;99.90
4596;DHT22;2310;49.978;8.742;2022-12-04T07:23:58;3.90;99.90
4596;DHT22;2310;49.978;8.742;2022-12-04T07:28:00;4.00;99.90
4596;DHT22;2310;49.978;8.742;2022-12-04T07:32:01;3.80;99.90
4596;DHT22;2310;49.978;8.742;2022-12-04T07:36:04;3.80;99.90
4596;DHT22;2310;49.978;8.742;2022-12-04T07:40:07;3.80;99.90
4596;DHT22;2310;49.978;8.742;2022-12-04T07:44:08;3.80;99.90
4596;DHT22;2310;49.978;8.742;2022-12-04T07:48:09;3.80;99.90
4596;DHT22;2310;49.978;8.742;2022-12-04T07:52:10;3.80;99.90
4596;DHT22;2310;49.978;8.742;2022-12-04T07:56:13;3.80;99.90
4596;DHT22;2310;49.978;8.742;2022-12-04T08:00:15;3.80;99.90
4596;DHT22;2310;49.978;8.742;2022-12-04T08:04:17;3.80;99.90
4596;DHT22;2310;49.978;8.742;2022-12-04T08:08:18;3.80;99.90
4596;DHT22;2310;49.978;8.742;2022-12-04T08:12:19;3.90;99.90
4596;DHT22;2310;49.978;8.742;2022-12-04T08:16:21;3.90;99.90
4596;DHT22;2310;49.978;8.742;2022-12-04T08:20:22;4.00;99.90
4596;DHT22;2310;49.978;8.742;2022-12-04T08:24:23;3.90;99.90
4596;DHT22;2310;49.978;8.742;2022-12-04T08:28:24;3.70;99.90
4596;DHT22;2310;49.978;8.742;2022-12-04T08:32:26;3.80;99.90
4596;DHT22;2310;49.978;8.742;2022-12-04T08:36:27;3.90;99.90
4596;DHT22;2310;49.978;8.742;2022-12-04T08:40:29;3.90;99.90
4596;DHT22;2310;49.978;8.742;2022-12-04T08:44:30;3.80;99.90
4596;DHT22;2310;49.978;8.742;2022-12-04T08:48:31;3.70;99.90
4596;DHT22;2310;49.978;8.742;2022-12-04T08:52:33;3.80;99.90
4596;DHT22;2310;49.978;8.742;2022-12-04T08:56:35;4.40;99.90
4596;DHT22;2310;49.978;8.742;2022-12-04T09:00:37;4.10;99.90
4596;DHT22;2310;49.978;8.742;2022-12-04T09:04:39;4.10;99.90
4596;DHT22;2310;49.978;8.742;2022-12-04T09:08:40;3.90;99.90
4596;DHT22;2310;49.978;8.742;2022-12-04T09:12:43;4.00;99.90
4596;DHT22;2310;49.978;8.742;2022-12-04T09:16:44;3.80;99.90
4596;DHT22;2310;49.978;8.742;2022-12-04T09:21:01;3.80;99.90
4596;DHT22;2310;49.978;8.742;2022-12-04T09:24:59;3.90;99.90
4596;DHT22;2310;49.978;8.742;2022-12-04T09:29:02;3.90;99.90
4596;DHT22;2310;49.978;8.742;2022-12-04T09:33:04;3.90;99.90
4596;DHT22;2310;49.978;8.742;2022-12-04T09:37:05;3.90;99.90
4596;DHT22;2310;49.978;8.742;2022-12-04T09:45:23;4.00;99.90
4596;DHT22;2310;49.978;8.742;2022-12-04T09:53:42;4.00;99.90
4596;DHT22;2310;49.978;8.742;2022-12-04T09:57:47;4.10;99.90
4596;DHT22;2310;49.978;8.742;2022-12-04T10:06:20;4.20;99.90
4596;DHT22;2310;49.978;8.742;2022-12-04T10:10:30;4.10;99.90
4596;DHT22;2310;49.978;8.742;2022-12-04T10:15:03;4.20;99.90
4596;DHT22;2310;49.978;8.742;2022-12-04T10:23:46;4.30;99.90
4596;DHT22;2310;49.978;8.742;2022-12-04T10:27:50;4.30;99.90
4596;DHT22;2310;49.978;8.742;2022-12-04T10:31:53;4.40;99.90
4596;DHT22;2310;49.978;8.742;2022-12-04T10:35:55;4.50;99.90
4596;DHT22;2310;49.978;8.742;2022-12-04T10:40:07;4.60;99.90
4596;DHT22;2310;49.978;8.742;2022-12-04T10:44:07;4.50;99.90
4596;DHT22;2310;49.978;8.742;2022-12-04T10:48:17;4.60;99.90
4596;DHT22;2310;49.978;8.742;2022-12-04T10:52:13;4.60;99.90
4596;DHT22;2310;49.978;8.742;2022-12-04T10:56:19;4.50;99.90
4596;DHT22;2310;49.978;8.742;2022-12-04T11:00:30;4.60;99.90
4596;DHT22;2310;49.978;8.742;2022-12-04T11:04:33;4.70;99.90
4596;DHT22;2310;49.978;8.742;2022-12-04T11:08:39;4.70;99.90
4596;DHT22;2310;49.978;8.742;2022-12-04T11:12:40;4.70;99.90
4596;DHT22;2310;49.978;8.742;2022-12-04T11:16:44;4.70;99.90
4596;DHT22;2310;49.978;8.742;2022-12-04T11:21:06;4.60;99.90
4596;DHT22;2310;49.978;8.742;2022-12-04T11:25:12;4.60;99.90
4596;DHT22;2310;49.978;8.742;2022-12-04T11:29:15;4.60;99.90
4596;DHT22;2310;49.978;8.742;2022-12-04T11:33:23;4.60;99.90
4596;DHT22;2310;49.978;8.742;2022-12-04T11:37:27;4.80;99.90
4596;DHT22;2310;49.978;8.742;2022-12-04T11:41:30;4.70;99.90
4596;DHT22;2310;49.978;8.742;2022-12-04T11:45:32;4.60;99.90
4596;DHT22;2310;49.978;8.742;2022-12-04T11:49:33;4.70;99.90
4596;DHT22;2310;49.978;8.742;2022-12-04T11:53:49;4.70;99.90
4596;DHT22;2310;49.978;8.742;2022-12-04T11:58:10;4.80;99.90
4596;DHT22;2310;49.978;8.742;2022-12-04T12:06:36;4.90;99.90
4596;DHT22;2310;49.978;8.742;2022-12-04T12:15:11;5.10;99.90
4596;DHT22;2310;49.978;8.742;2022-12-04T12:28:39;5.00;99.90
4596;DHT22;2310;49.978;8.742;2022-12-04T12:37:22;5.20;99.90
4596;DHT22;2310;49.978;8.742;2022-12-04T12:41:26;5.20;99.90
4596;DHT22;2310;49.978;8.742;2022-12-04T12:50:14;5.00;99.90
4596;DHT22;2310;49.978;8.742;2022-12-04T12:58:56;5.10;99.90
4596;DHT22;2310;49.978;8.742;2022-12-04T13:07:25;5.30;99.90
4596;DHT22;2310;49.978;8.742;2022-12-04T13:11:26;5.30;99.90
4596;DHT22;2310;49.978;8.742;2022-12-04T13:15:33;5.30;99.90
4596;DHT22;2310;49.978;8.742;2022-12-04T13:19:36;5.30;99.90
4596;DHT22;2310;49.978;8.742;2022-12-04T13:41:25;5.20;99.90
4596;DHT22;2310;49.978;8.742;2022-12-04T13:45:30;5.10;99.90
4596;DHT22;2310;49.978;8.742;2022-12-04T13:49:34;5.20;99.90
4596;DHT22;2310;49.978;8.742;2022-12-04T13:53:37;5.00;99.90
4596;DHT22;2310;49.978;8.742;2022-12-04T13:57:51;5.00;99.90
4596;DHT22;2310;49.978;8.742;2022-12-04T14:01:48;4.90;99.90
4596;DHT22;2310;49.978;8.742;2022-12-04T14:05:51;5.00;99.90
4596;DHT22;2310;49.978;8.742;2022-12-04T14:09:54;5.00;99.90
4596;DHT22;2310;49.978;8.742;2022-12-04T14:13:57;5.00;99.90
4596;DHT22;2310;49.978;8.742;2022-12-04T14:22:38;4.80;99.90
4596;DHT22;2310;49.978;8.742;2022-12-04T14:26:31;4.90;99.90
4596;DHT22;2310;49.978;8.742;2022-12-04T14:30:38;5.00;99.90
4596;DHT22;2310;49.978;8.742;2022-12-04T14:34:40;5.10;99.90
4596;DHT22;2310;49.978;8.742;2022-12-04T14:38:47;5.00;99.90
4596;DHT22;2310;49.978;8.742;2022-12-04T14:42:49;4.90;99.90
4596;DHT22;2310;49.978;8.742;2022-12-04T14:46:51;5.00;99.90
4596;DHT22;2310;49.978;8.742;2022-12-04T14:55:36;4.90;99.90
4596;DHT22;2310;49.978;8.742;2022-12-04T14:59:43;4.90;99.90
4596;DHT22;2310;49.978;8.742;2022-12-04T15:03:46;4.80;99.90
4596;DHT22;2310;49.978;8.742;2022-12-04T15:07:51;4.90;99.90
4596;DHT22;2310;49.978;8.742;2022-12-04T15:11:54;5.00;99.90
4596;DHT22;2310;49.978;8.742;2022-12-04T15:16:18;5.00;99.90
4596;DHT22;2310;49.978;8.742;2022-12-04T15:20:20;5.20;99.90
4596;DHT22;2310;49.978;8.742;2022-12-04T15:24:21;5.00;99.90
4596;DHT22;2310;49.978;8.742;2022-12-04T15:32:33;4.80;99.90
4596;DHT22;2310;49.978;8.742;2022-12-04T15:36:49;5.00;99.90
4596;DHT22;2310;49.978;8.742;2022-12-04T15:40:59;5.00;99.90
4596;DHT22;2310;49.978;8.742;2022-12-04T15:49:18;5.10;99.90
4596;DHT22;2310;49.978;8.742;2022-12-04T15:53:23;5.30;99.90
4596;DHT22;2310;49.978;8.742;2022-12-04T15:57:32;5.20;99.90
4596;DHT22;2310;49.978;8.742;2022-12-04T16:01:39;5.00;99.90
4596;DHT22;2310;49.978;8.742;2022-12-04T16:05:40;5.10;99.90
4596;DHT22;2310;49.978;8.742;2022-12-04T16:09:54;5.20;99.90
4596;DHT22;2310;49.978;8.742;2022-12-04T16:18:06;4.90;99.90
4596;DHT22;2310;49.978;8.742;2022-12-04T16:22:15;5.00;99.90
4596;DHT22;2310;49.978;8.742;2022-12-04T16:26:19;5.00;99.90
4596;DHT22;2310;49.978;8.742;2022-12-04T16:30:20;5.00;99.90
4596;DHT22;2310;49.978;8.742;2022-12-04T16:34:21;4.90;99.90
4596;DHT22;2310;49.978;8.742;2022-12-04T16:38:25;5.00;99.90
4596;DHT22;2310;49.978;8.742;2022-12-04T16:42:28;5.00;99.90
4596;DHT22;2310;49.978;8.742;2022-12-04T16:46:29;4.90;99.90
4596;DHT22;2310;49.978;8.742;2022-12-04T16:50:30;4.90;99.90
4596;DHT22;2310;49.978;8.742;2022-12-04T16:54:32;4.80;99.90
4596;DHT22;2310;49.978;8.742;2022-12-04T16:58:33;5.00;99.90
4596;DHT22;2310;49.978;8.742;2022-12-04T17:02:34;5.10;99.90
4596;DHT22;2310;49.978;8.742;2022-12-04T17:06:35;5.00;99.90
4596;DHT22;2310;49.978;8.742;2022-12-04T17:10:37;5.00;99.90
4596;DHT22;2310;49.978;8.742;2022-12-04T17:14:39;5.10;99.90
4596;DHT22;2310;49.978;8.742;2022-12-04T17:18:40;4.90;99.90
4596;DHT22;2310;49.978;8.742;2022-12-04T17:22:42;5.00;99.90
4596;DHT22;2310;49.978;8.742;2022-12-04T17:26:43;5.00;99.90
4596;DHT22;2310;49.978;8.742;2022-12-04T17:30:45;5.10;99.90
4596;DHT22;2310;49.978;8.742;2022-12-04T17:34:46;4.80;99.90
4596;DHT22;2310;49.978;8.742;2022-12-04T17:38:51;4.80;99.90
4596;DHT22;2310;49.978;8.742;2022-12-04T17:42:50;4.80;99.90
4596;DHT22;2310;49.978;8.742;2022-12-04T17:46:51;4.70;99.90
4596;DHT22;2310;49.978;8.742;2022-12-04T17:51:11;4.70;99.90
4596;DHT22;2310;49.978;8.742;2022-12-04T17:55:12;4.70;99.90
4596;DHT22;2310;49.978;8.742;2022-12-04T17:59:13;4.60;99.90
4596;DHT22;2310;49.978;8.742;2022-12-04T18:03:14;4.50;99.90
4596;DHT22;2310;49.978;8.742;2022-12-04T18:07:16;4.40;99.90
4596;DHT22;2310;49.978;8.742;2022-12-04T18:11:18;4.50;99.90
4596;DHT22;2310;49.978;8.742;2022-12-04T18:15:20;4.50;99.90
4596;DHT22;2310;49.978;8.742;2022-12-04T18:19:27;4.80;99.90
4596;DHT22;2310;49.978;8.742;2022-12-04T18:23:28;5.00;99.90
4596;DHT22;2310;49.978;8.742;2022-12-04T18:27:30;5.00;99.90
4596;DHT22;2310;49.978;8.742;2022-12-04T18:31:31;4.80;99.90
4596;DHT22;2310;49.978;8.742;2022-12-04T18:35:32;4.80;99.90
4596;DHT22;2310;49.978;8.742;2022-12-04T18:39:33;4.80;99.90
4596;DHT22;2310;49.978;8.742;2022-12-04T18:43:36;4.80;99.90
4596;DHT22;2310;49.978;8.742;2022-12-04T18:47:38;4.70;99.90
4596;DHT22;2310;49.978;8.742;2022-12-04T18:51:42;4.70;99.90
4596;DHT22;2310;49.978;8.742;2022-12-04T18:55:46;4.80;99.90
4596;DHT22;2310;49.978;8.742;2022-12-04T18:59:47;4.80;99.90
4596;DHT22;2310;49.978;8.742;2022-12-04T19:03:48;4.80;99.90
4596;DHT22;2310;49.978;8.742;2022-12-04T19:07:50;4.80;99.90
4596;DHT22;2310;49.978;8.742;2022-12-04T19:11:52;4.60;99.90
4596;DHT22;2310;49.978;8.742;2022-12-04T19:15:53;4.60;99.90
4596;DHT22;2310;49.978;8.742;2022-12-04T19:19:54;4.60;99.90
4596;DHT22;2310;49.978;8.742;2022-12-04T19:23:58;4.50;99.90
4596;DHT22;2310;49.978;8.742;2022-12-04T19:28:00;4.50;99.90
4596;DHT22;2310;49.978;8.742;2022-12-04T19:32:03;4.60;99.90
4596;DHT22;2310;49.978;8.742;2022-12-04T19:36:05;4.50;99.90
4596;DHT22;2310;49.978;8.742;2022-12-04T19:40:07;4.30;99.90
4596;DHT22;2310;49.978;8.742;2022-12-04T19:44:08;4.40;99.90
4596;DHT22;2310;49.978;8.742;2022-12-04T19:48:11;4.30;99.90
4596;DHT22;2310;49.978;8.742;2022-12-04T19:52:13;4.40;99.90
4596;DHT22;2310;49.978;8.742;2022-12-04T19:56:18;4.30;99.90
4596;DHT22;2310;49.978;8.742;2022-12-04T20:00:18;4.50;99.90
4596;DHT22;2310;49.978;8.742;2022-12-04T20:04:20;4.50;99.90
4596;DHT22;2310;49.978;8.742;2022-12-04T20:08:21;4.60;99.90
4596;DHT22;2310;49.978;8.742;2022-12-04T20:12:23;4.60;99.90
4596;DHT22;2310;49.978;8.742;2022-12-04T20:16:26;4.70;99.90
4596;DHT22;2310;49.978;8.742;2022-12-04T20:20:28;4.60;99.90
4596;DHT22;2310;49.978;8.742;2022-12-04T20:24:29;4.80;99.90
4596;DHT22;2310;49.978;8.742;2022-12-04T20:28:30;5.00;99.90
4596;DHT22;2310;49.978;8.742;2022-12-04T20:32:32;5.00;99.90
4596;DHT22;2310;49.978;8.742;2022-12-04T20:36:36;4.80;99.90
4596;DHT22;2310;49.978;8.742;2022-12-04T20:40:38;4.80;99.90
4596;DHT22;2310;49.978;8.742;2022-12-04T20:44:39;4.70;99.90
4596;DHT22;2310;49.978;8.742;2022-12-04T20:48:40;4.70;99.90
4596;DHT22;2310;49.978;8.742;2022-12-04T20:52:43;4.70;99.90
4596;DHT22;2310;49.978;8.742;2022-12-04T20:56:45;4.80;99.90
4596;DHT22;2310;49.978;8.742;2022-12-04T21:00:48;4.70;99.90
4596;DHT22;2310;49.978;8.742;2022-12-04T21:04:49;4.60;99.90
4596;DHT22;2310;49.978;8.742;2022-12-04T21:08:51;4.60;99.90
4596;DHT22;2310;49.978;8.742;2022-12-04T21:13:00;4.70;99.90
4596;DHT22;2310;49.978;8.742;2022-12-04T21:17:19;4.80;99.90
4596;DHT22;2310;49.978;8.742;2022-12-04T21:21:21;5.00;99.90
4596;DHT22;2310;49.978;8.742;2022-12-04T21:25:27;4.90;99.90
4596;DHT22;2310;49.978;8.742;2022-12-04T21:29:31;4.90;99.90
4596;DHT22;2310;49.978;8.742;2022-12-04T21:33:32;4.80;99.90
4596;DHT22;2310;49.978;8.742;2022-12-04T21:37:34;4.80;99.90
4596;DHT22;2310;49.978;8.742;2022-12-04T21:41:35;4.80;99.90
4596;DHT22;2310;49.978;8.742;2022-12-04T21:45:57;4.80;99.90
4596;DHT22;2310;49.978;8.742;2022-12-04T21:49:58;4.70;99.90
4596;DHT22;2310;49.978;8.742;2022-12-04T21:54:01;4.70;99.90
4596;DHT22;2310;49.978;8.742;2022-12-04T21:58:02;4.80;99.90
4596;DHT22;2310;49.978;8.742;2022-12-04T22:02:03;4.80;99.90
4596;DHT22;2310;49.978;8.742;2022-12-04T22:06:05;4.80;99.90
4596;DHT22;2310;49.978;8.742;2022-12-04T22:10:07;4.80;99.90
4596;DHT22;2310;49.978;8.742;2022-12-04T22:14:11;4.80;99.90
4596;DHT22;2310;49.978;8.742;2022-12-04T22:18:12;4.80;99.90
4596;DHT22;2310;49.978;8.742;2022-12-04T22:22:13;4.80;99.90
4596;DHT22;2310;49.978;8.742;2022-12-04T22:26:16;4.90;99.90
4596;DHT22;2310;49.978;8.742;2022-12-04T22:30:19;4.70;99.90
4596;DHT22;2310;49.978;8.742;2022-12-04T22:34:20;4.70;99.90
4596;DHT22;2310;49.978;8.742;2022-12-04T22:38:21;4.90;99.90
4596;DHT22;2310;49.978;8.742;2022-12-04T22:42:22;4.90;99.90
4596;DHT22;2310;49.978;8.742;2022-12-04T22:46:23;4.80;99.90
4596;DHT22;2310;49.978;8.742;2022-12-04T22:50:24;5.00;99.90
4596;DHT22;2310;49.978;8.742;2022-12-04T22:54:25;5.00;99.90
4596;DHT22;2310;49.978;8.742;2022-12-04T22:58:27;5.20;99.90
4596;DHT22;2310;49.978;8.742;2022-12-04T23:02:28;5.30;99.90
4596;DHT22;2310;49.978;8.742;2022-12-04T23:06:31;5.40;99.90
4596;DHT22;2310;49.978;8.742;2022-12-04T23:10:37;5.40;99.90
4596;DHT22;2310;49.978;8.742;2022-12-04T23:14:38;5.50;99.90
4596;DHT22;2310;49.978;8.742;2022-12-04T23:18:39;5.40;99.90
4596;DHT22;2310;49.978;8.742;2022-12-04T23:22:40;5.30;99.90
4596;DHT22;2310;49.978;8.742;2022-12-04T23:26:44;5.40;99.90
4596;DHT22;2310;49.978;8.742;2022-12-04T23:30:45;5.40;99.90
4596;DHT22;2310;49.978;8.742;2022-12-04T23:34:46;5.50;99.90
4596;DHT22;2310;49.978;8.742;2022-12-04T23:38:48;5.60;99.90
4596;DHT22;2310;49.978;8.742;2022-12-04T23:42:49;5.50;99.90
4596;DHT22;2310;49.978;8.742;2022-12-04T23:46:50;5.60;99.90
4596;DHT22;2310;49.978;8.742;2022-12-04T23:50:51;5.60;99.90
4596;DHT22;2310;49.978;8.742;2022-12-04T23:54:53;5.60;99.90
4596;DHT22;2310;49.978;8.742;2022-12-04T23:58:55;5.60;99.90
